createdAt,value
2017-09-13T00:00:30.313Z,1.47
2017-09-13T00:02:57.806Z,1.60
2017-09-13T00:05:25.336Z,1.50
2017-09-13T00:07:52.781Z,1.77
2017-09-13T00:10:20.254Z,1.70
2017-09-13T00:12:47.729Z,1.70
2017-09-13T00:15:19.379Z,1.37
2017-09-13T00:17:46.810Z,1.80
2017-09-13T00:20:14.479Z,1.40
2017-09-13T00:22:41.909Z,1.53
2017-09-13T00:25:09.384Z,1.57
2017-09-13T00:27:36.830Z,1.70
2017-09-13T00:30:04.267Z,2.70
2017-09-13T00:32:31.785Z,2.03
2017-09-13T00:34:59.232Z,1.70
2017-09-13T00:37:26.693Z,1.70
2017-09-13T00:39:54.142Z,2.20
2017-09-13T00:42:21.621Z,1.50
2017-09-13T00:44:49.055Z,2.13
2017-09-13T00:47:16.531Z,1.13
2017-09-13T00:49:43.966Z,1.90
2017-09-13T00:52:11.430Z,1.90
2017-09-13T00:54:38.995Z,1.37
2017-09-13T00:57:06.462Z,1.67
2017-09-13T00:59:33.894Z,1.53
2017-09-13T01:02:01.373Z,1.87
2017-09-13T01:04:28.819Z,1.60
2017-09-13T01:06:56.429Z,1.50
2017-09-13T01:09:23.877Z,1.20
2017-09-13T01:11:51.338Z,2.03
2017-09-13T01:14:18.783Z,1.53
2017-09-13T01:16:46.298Z,1.67
2017-09-13T01:19:13.740Z,1.63
2017-09-13T01:21:41.189Z,2.00
2017-09-13T01:24:08.646Z,1.40
2017-09-13T01:26:36.097Z,0.93
2017-09-13T01:29:03.559Z,2.17
2017-09-13T01:31:30.999Z,1.33
2017-09-13T01:33:58.515Z,1.87
2017-09-13T01:36:25.959Z,1.67
2017-09-13T01:38:53.422Z,2.23
2017-09-13T01:41:20.864Z,1.37
2017-09-13T01:43:48.315Z,2.63
2017-09-13T01:46:15.759Z,2.17
2017-09-13T01:48:43.325Z,1.80
2017-09-13T01:51:10.765Z,1.20
2017-09-13T01:53:38.317Z,1.70
2017-09-13T01:56:05.811Z,2.03
2017-09-13T01:58:33.276Z,1.77
2017-09-13T02:01:00.809Z,1.67
2017-09-13T02:03:28.279Z,1.50
2017-09-13T02:05:55.923Z,1.47
2017-09-13T02:08:23.463Z,1.83
2017-09-13T02:10:50.908Z,1.60
2017-09-13T02:13:18.342Z,1.63
2017-09-13T02:15:45.809Z,1.63
2017-09-13T02:18:13.288Z,1.40
2017-09-13T02:20:40.760Z,1.70
2017-09-13T02:23:08.208Z,1.67
2017-09-13T02:25:35.662Z,1.23
2017-09-13T02:28:03.156Z,2.37
2017-09-13T02:30:30.623Z,1.90
2017-09-13T02:32:58.153Z,1.47
2017-09-13T02:35:25.728Z,1.47
2017-09-13T02:37:53.167Z,1.70
2017-09-13T02:40:20.736Z,1.77
2017-09-13T02:42:48.212Z,1.90
2017-09-13T02:45:15.646Z,1.57
2017-09-13T02:47:43.118Z,1.50
2017-09-13T02:50:10.570Z,1.17
2017-09-13T02:52:38.097Z,1.70
2017-09-13T02:55:05.531Z,2.50
2017-09-13T02:57:33.024Z,1.53
2017-09-13T03:00:00.452Z,1.43
2017-09-13T03:02:27.903Z,1.63
2017-09-13T03:04:55.361Z,1.07
2017-09-13T03:07:22.842Z,1.37
2017-09-13T03:09:50.368Z,1.63
2017-09-13T03:12:17.858Z,1.70
2017-09-13T03:14:45.298Z,1.20
2017-09-13T03:17:12.733Z,1.07
2017-09-13T03:19:40.191Z,1.13
2017-09-13T03:22:07.694Z,1.20
2017-09-13T03:24:35.160Z,1.53
2017-09-13T03:27:02.736Z,1.20
2017-09-13T03:29:30.273Z,1.40
2017-09-13T03:31:57.707Z,1.50
2017-09-13T03:34:25.156Z,0.97
2017-09-13T03:36:52.598Z,1.90
2017-09-13T03:39:20.303Z,1.97
2017-09-13T03:41:47.759Z,1.70
2017-09-13T03:44:15.225Z,1.57
2017-09-13T03:46:42.714Z,1.40
2017-09-13T03:49:10.174Z,1.37
2017-09-13T03:51:37.872Z,1.60
2017-09-13T03:54:05.329Z,1.40
2017-09-13T03:56:32.796Z,1.40
2017-09-13T03:59:00.226Z,1.47
2017-09-13T04:01:27.703Z,1.33
2017-09-13T04:03:55.144Z,1.17
2017-09-13T04:06:22.606Z,1.30
2017-09-13T04:08:50.152Z,1.20
2017-09-13T04:11:17.609Z,0.83
2017-09-13T04:13:45.037Z,1.03
2017-09-13T04:16:12.514Z,1.90
2017-09-13T04:18:40.038Z,1.27
2017-09-13T04:21:07.509Z,1.90
2017-09-13T04:23:34.942Z,1.87
2017-09-13T04:26:02.374Z,1.37
2017-09-13T04:28:29.860Z,1.60
2017-09-13T04:30:57.407Z,1.53
2017-09-13T04:33:24.966Z,1.23
2017-09-13T04:35:52.411Z,1.03
2017-09-13T04:38:19.910Z,1.20
2017-09-13T04:40:47.367Z,0.90
2017-09-13T04:43:14.855Z,2.20
2017-09-13T04:45:42.307Z,1.47
2017-09-13T04:48:09.795Z,0.90
2017-09-13T04:50:37.230Z,1.40
2017-09-13T04:53:04.767Z,1.30
2017-09-13T04:55:32.203Z,1.07
2017-09-13T04:57:59.697Z,1.23
2017-09-13T05:00:27.125Z,1.30
2017-09-13T05:02:54.664Z,1.17
2017-09-13T05:05:22.107Z,1.00
2017-09-13T05:07:49.575Z,1.90
2017-09-13T05:10:17.065Z,1.67
2017-09-13T05:12:44.563Z,0.90
2017-09-13T05:15:12.055Z,1.20
2017-09-13T05:17:39.598Z,0.93
2017-09-13T05:20:07.148Z,0.90
2017-09-13T05:22:34.585Z,1.30
2017-09-13T05:25:02.105Z,0.90
2017-09-13T05:27:29.532Z,0.87
2017-09-13T05:29:57.070Z,1.23
2017-09-13T05:32:24.511Z,0.63
2017-09-13T05:34:51.969Z,0.60
2017-09-13T05:37:19.401Z,1.10
2017-09-13T05:39:46.853Z,1.13
2017-09-13T05:42:14.316Z,0.80
2017-09-13T05:44:41.774Z,0.60
2017-09-13T05:47:09.205Z,0.93
2017-09-13T05:49:36.658Z,0.90
2017-09-13T05:52:04.104Z,0.80
2017-09-13T05:54:31.583Z,0.73
2017-09-13T05:56:59.035Z,0.80
2017-09-13T05:59:26.574Z,0.60
2017-09-13T06:01:54.253Z,0.53
2017-09-13T06:04:21.730Z,0.70
2017-09-13T06:06:49.195Z,0.80
2017-09-13T06:09:16.650Z,0.80
2017-09-13T06:11:44.091Z,0.80
2017-09-13T06:14:11.756Z,0.93
2017-09-13T06:16:39.223Z,1.37
2017-09-13T06:19:06.721Z,0.80
2017-09-13T06:21:34.174Z,0.63
2017-09-13T06:24:01.601Z,0.47
2017-09-13T06:26:29.077Z,0.90
2017-09-13T06:28:56.510Z,0.80
2017-09-13T06:31:23.991Z,0.70
2017-09-13T06:33:51.440Z,0.70
2017-09-13T06:36:18.904Z,0.70
2017-09-13T06:38:46.363Z,0.70
2017-09-13T06:41:13.817Z,0.60
2017-09-13T06:43:41.256Z,0.67
2017-09-13T06:46:08.710Z,0.70
2017-09-13T06:48:36.144Z,0.83
2017-09-13T06:51:03.620Z,0.60
2017-09-13T06:53:31.085Z,0.60
2017-09-13T06:55:58.559Z,0.70
2017-09-13T06:58:25.994Z,0.67
2017-09-13T07:00:53.537Z,0.60
2017-09-13T07:03:20.974Z,0.50
2017-09-13T07:05:48.495Z,0.50
2017-09-13T07:08:15.934Z,0.70
2017-09-13T07:10:43.399Z,0.57
2017-09-13T07:13:12.327Z,0.60
2017-09-13T07:15:39.789Z,0.70
2017-09-13T07:18:08.126Z,0.50
2017-09-13T07:20:35.598Z,0.40
2017-09-13T07:23:03.043Z,0.90
2017-09-13T07:25:30.480Z,0.40
2017-09-13T07:27:57.948Z,0.50
2017-09-13T07:30:25.404Z,0.40
2017-09-13T07:32:52.871Z,2.10
2017-09-13T07:35:20.311Z,1.60
2017-09-13T07:37:47.762Z,0.47
2017-09-13T07:40:15.198Z,0.77
2017-09-13T07:42:42.697Z,0.40
2017-09-13T07:45:10.153Z,0.37
2017-09-13T07:47:37.724Z,0.50
2017-09-13T07:50:05.161Z,0.73
2017-09-13T07:52:32.647Z,0.50
2017-09-13T07:55:00.083Z,0.37
2017-09-13T07:57:27.557Z,0.40
2017-09-13T07:59:55.134Z,0.40
2017-09-13T08:02:22.585Z,0.40
2017-09-13T08:04:50.102Z,0.83
2017-09-13T08:07:17.548Z,0.40
2017-09-13T08:09:45.006Z,0.60
2017-09-13T08:12:12.577Z,0.40
2017-09-13T08:14:40.054Z,0.40
2017-09-13T08:17:07.502Z,0.50
2017-09-13T08:19:34.968Z,0.40
2017-09-13T08:22:02.431Z,0.40
2017-09-13T08:24:29.891Z,0.40
2017-09-13T08:26:57.330Z,0.40
2017-09-13T08:29:24.787Z,0.50
2017-09-13T08:31:52.226Z,0.60
2017-09-13T08:34:19.694Z,0.40
2017-09-13T08:36:47.152Z,0.37
2017-09-13T08:39:14.595Z,0.50
2017-09-13T08:41:42.095Z,0.40
2017-09-13T08:44:09.522Z,0.40
2017-09-13T08:46:36.987Z,0.50
2017-09-13T08:49:04.541Z,0.40
2017-09-13T08:51:31.998Z,0.50
2017-09-13T08:53:59.459Z,0.40
2017-09-13T08:56:26.939Z,0.40
2017-09-13T08:58:54.456Z,0.40
2017-09-13T09:01:21.920Z,0.50
2017-09-13T09:03:49.355Z,0.60
2017-09-13T09:06:16.815Z,0.30
2017-09-13T09:08:44.252Z,0.57
2017-09-13T09:11:11.740Z,0.53
2017-09-13T09:13:39.169Z,0.50
2017-09-13T09:16:06.647Z,0.50
2017-09-13T09:18:34.107Z,0.40
2017-09-13T09:21:01.546Z,0.43
2017-09-13T09:23:28.997Z,0.50
2017-09-13T09:25:56.519Z,0.50
2017-09-13T09:28:23.995Z,0.40
2017-09-13T09:30:51.432Z,0.50
2017-09-13T09:33:18.943Z,0.50
2017-09-13T09:35:46.392Z,0.40
2017-09-13T09:38:13.846Z,0.40
2017-09-13T09:40:41.287Z,0.80
2017-09-13T09:43:08.780Z,0.40
2017-09-13T09:45:36.469Z,0.47
2017-09-13T09:48:03.953Z,0.40
2017-09-13T09:50:31.411Z,0.47
2017-09-13T09:52:58.863Z,0.40
2017-09-13T09:55:26.344Z,0.40
2017-09-13T09:57:53.847Z,0.30
2017-09-13T10:00:21.301Z,0.30
2017-09-13T10:02:48.771Z,0.37
2017-09-13T10:05:16.237Z,0.30
2017-09-13T10:07:43.755Z,0.60
2017-09-13T10:10:11.228Z,0.33
2017-09-13T10:12:38.667Z,0.30
2017-09-13T10:15:06.133Z,0.30
2017-09-13T10:17:33.710Z,0.40
2017-09-13T10:20:01.229Z,0.40
2017-09-13T10:22:28.671Z,0.50
2017-09-13T10:24:56.122Z,0.30
2017-09-13T10:27:23.611Z,0.30
2017-09-13T10:29:51.215Z,0.33
2017-09-13T10:32:19.343Z,0.40
2017-09-13T10:34:46.812Z,0.60
2017-09-13T10:37:14.313Z,0.40
2017-09-13T10:39:41.779Z,0.50
2017-09-13T10:42:09.297Z,0.40
2017-09-13T10:44:37.097Z,0.50
2017-09-13T10:47:04.599Z,0.57
2017-09-13T10:49:32.156Z,0.60
2017-09-13T10:51:59.614Z,0.50
2017-09-13T10:54:27.070Z,0.60
2017-09-13T10:56:54.985Z,0.80
2017-09-13T10:59:22.440Z,0.43
2017-09-13T11:01:49.903Z,0.47
2017-09-13T11:04:17.403Z,0.40
2017-09-13T11:06:44.888Z,0.50
2017-09-13T11:09:12.372Z,0.40
2017-09-13T11:11:39.838Z,0.40
2017-09-13T11:14:07.278Z,0.40
2017-09-13T11:16:34.742Z,0.70
2017-09-13T11:19:02.238Z,0.60
2017-09-13T11:21:29.692Z,0.50
2017-09-13T11:23:57.127Z,0.70
2017-09-13T11:26:24.601Z,0.40
2017-09-13T11:28:52.067Z,0.70
2017-09-13T11:31:19.535Z,0.57
2017-09-13T11:33:46.966Z,0.80
2017-09-13T11:36:14.444Z,0.70
2017-09-13T11:38:41.890Z,1.30
2017-09-13T11:41:09.396Z,0.87
2017-09-13T11:43:36.843Z,0.90
2017-09-13T11:46:04.338Z,0.70
2017-09-13T11:48:31.794Z,1.20
2017-09-13T11:50:59.286Z,1.20
2017-09-13T11:53:27.286Z,1.23
2017-09-13T11:55:54.859Z,1.40
2017-09-13T11:58:22.362Z,1.20
2017-09-13T12:00:49.815Z,1.70
2017-09-13T12:03:17.280Z,1.10
2017-09-13T12:05:44.713Z,1.33
2017-09-13T12:08:12.451Z,1.27
2017-09-13T12:10:39.939Z,0.80
2017-09-13T12:13:07.418Z,0.70
2017-09-13T12:15:34.981Z,1.03
2017-09-13T12:18:02.533Z,0.97
2017-09-13T12:20:29.965Z,0.80
2017-09-13T12:22:57.438Z,1.27
2017-09-13T12:25:24.905Z,1.37
2017-09-13T12:27:52.352Z,1.37
2017-09-13T12:30:19.839Z,0.73
2017-09-13T12:32:47.308Z,0.93
2017-09-13T12:35:14.772Z,1.80
2017-09-13T12:37:42.205Z,1.43
2017-09-13T12:40:09.665Z,1.63
2017-09-13T12:42:37.108Z,1.43
2017-09-13T12:45:04.576Z,1.50
2017-09-13T12:47:32.108Z,2.20
2017-09-13T12:49:59.567Z,1.93
2017-09-13T12:52:27.001Z,1.60
2017-09-13T12:54:54.474Z,2.13
2017-09-13T12:57:22.031Z,1.67
2017-09-13T12:59:49.495Z,1.50
2017-09-13T13:02:16.951Z,2.30
2017-09-13T13:04:44.429Z,3.03
2017-09-13T13:07:11.984Z,1.83
2017-09-13T13:09:39.584Z,2.63
2017-09-13T13:12:07.073Z,2.60
2017-09-13T13:14:34.519Z,1.90
2017-09-13T13:17:02.004Z,2.20
2017-09-13T13:19:29.438Z,1.50
2017-09-13T13:21:56.903Z,1.67
2017-09-13T13:24:24.334Z,1.90
2017-09-13T13:26:51.823Z,2.00
2017-09-13T13:29:19.280Z,2.07
2017-09-13T13:31:46.748Z,1.80
2017-09-13T13:34:14.299Z,1.90
2017-09-13T13:36:41.863Z,2.00
2017-09-13T13:39:09.302Z,1.83
2017-09-13T13:41:36.876Z,1.37
2017-09-13T13:44:04.664Z,1.37
2017-09-13T13:46:32.146Z,1.77
2017-09-13T13:48:59.637Z,1.70
2017-09-13T13:51:27.219Z,1.50
2017-09-13T13:53:54.757Z,2.00
2017-09-13T13:56:22.198Z,1.60
2017-09-13T13:58:49.663Z,1.20
2017-09-13T14:01:17.132Z,1.50
2017-09-13T14:03:44.625Z,1.40
2017-09-13T14:06:12.066Z,1.60
2017-09-13T14:08:39.532Z,2.03
2017-09-13T14:11:06.978Z,1.30
2017-09-13T14:13:34.469Z,1.90
2017-09-13T14:16:01.915Z,1.80
2017-09-13T14:18:29.392Z,1.40
2017-09-13T14:20:56.883Z,1.73
2017-09-13T14:23:24.351Z,1.23
2017-09-13T14:25:51.782Z,1.20
2017-09-13T14:28:19.242Z,1.60
2017-09-13T14:30:46.819Z,1.37
2017-09-13T14:33:14.308Z,1.87
2017-09-13T14:35:41.759Z,1.50
2017-09-13T14:38:09.294Z,1.20
2017-09-13T14:40:36.726Z,1.03
2017-09-13T14:43:04.408Z,1.03
2017-09-13T14:45:31.860Z,1.10
2017-09-13T14:47:59.290Z,1.10
2017-09-13T14:50:26.745Z,1.10
2017-09-13T14:52:54.246Z,1.03
2017-09-13T14:55:21.925Z,1.20
2017-09-13T14:57:49.358Z,1.07
2017-09-13T15:00:16.923Z,1.83
2017-09-13T15:02:44.467Z,0.70
2017-09-13T15:05:12.021Z,1.50
2017-09-13T15:07:39.466Z,1.00
2017-09-13T15:10:06.926Z,1.47
2017-09-13T15:12:34.368Z,1.37
2017-09-13T15:15:01.836Z,1.30
2017-09-13T15:17:29.313Z,1.37
2017-09-13T15:19:56.852Z,0.87
2017-09-13T15:22:24.318Z,1.13
2017-09-13T15:24:51.788Z,1.37
2017-09-13T15:27:19.235Z,0.97
2017-09-13T15:29:46.801Z,1.40
2017-09-13T15:32:14.267Z,1.20
2017-09-13T15:34:41.802Z,1.20
2017-09-13T15:37:09.258Z,1.37
2017-09-13T15:39:36.705Z,0.90
2017-09-13T15:42:04.299Z,1.10
2017-09-13T15:44:31.733Z,1.23
2017-09-13T15:46:59.200Z,1.20
2017-09-13T15:49:26.646Z,1.03
2017-09-13T15:51:54.107Z,1.10
2017-09-13T15:54:21.571Z,1.47
2017-09-13T15:56:49.041Z,1.30
2017-09-13T15:59:16.508Z,1.43
2017-09-13T16:01:44.014Z,1.40
2017-09-13T16:04:11.490Z,1.30
2017-09-13T16:06:38.981Z,1.00
2017-09-13T16:09:06.442Z,0.97
2017-09-13T16:11:33.911Z,0.80
2017-09-13T16:14:01.356Z,1.10
2017-09-13T16:16:28.831Z,1.03
2017-09-13T16:18:56.269Z,1.23
2017-09-13T16:21:23.737Z,1.30
2017-09-13T16:23:51.182Z,1.03
2017-09-13T16:26:18.625Z,1.23
2017-09-13T16:28:46.091Z,1.20
2017-09-13T16:31:13.522Z,1.63
2017-09-13T16:33:40.989Z,1.40
2017-09-13T16:36:08.517Z,1.73
2017-09-13T16:38:35.990Z,1.70
2017-09-13T16:41:03.432Z,2.00
2017-09-13T16:43:30.885Z,2.30
2017-09-13T16:45:58.470Z,3.00
2017-09-13T16:48:25.938Z,1.60
2017-09-13T16:50:53.607Z,2.50
2017-09-13T16:53:21.076Z,1.97
2017-09-13T16:55:48.516Z,2.13
2017-09-13T16:58:16.049Z,1.67
2017-09-13T17:00:43.486Z,2.37
2017-09-13T17:03:10.949Z,1.80
2017-09-13T17:05:38.839Z,1.87
2017-09-13T17:08:06.340Z,2.67
2017-09-13T17:10:33.782Z,1.70
2017-09-13T17:13:01.290Z,1.80
2017-09-13T17:15:28.718Z,1.73
2017-09-13T17:17:57.260Z,2.50
2017-09-13T17:20:24.727Z,2.37
2017-09-13T17:22:52.207Z,2.07
2017-09-13T17:25:19.711Z,2.00
2017-09-13T17:27:47.179Z,1.60
2017-09-13T17:30:14.744Z,2.10
2017-09-13T17:32:42.284Z,1.80
2017-09-13T17:35:09.730Z,1.87
2017-09-13T17:37:37.172Z,2.40
2017-09-13T17:40:04.636Z,1.83
2017-09-13T17:42:32.070Z,1.70
2017-09-13T17:44:59.529Z,1.90
2017-09-13T17:47:26.962Z,1.80
2017-09-13T17:49:54.440Z,2.33
2017-09-13T17:52:21.913Z,1.90
2017-09-13T17:54:49.375Z,1.90
2017-09-13T17:57:16.806Z,3.03
2017-09-13T17:59:44.298Z,2.50
2017-09-13T18:02:11.765Z,2.57
2017-09-13T18:04:39.241Z,3.47
2017-09-13T18:07:06.673Z,3.10
2017-09-13T18:09:34.234Z,2.13
2017-09-13T18:12:01.662Z,2.10
2017-09-13T18:14:29.118Z,2.13
2017-09-13T18:16:56.563Z,2.00
2017-09-13T18:19:24.046Z,2.13
2017-09-13T18:21:51.502Z,2.00
2017-09-13T18:24:18.953Z,2.20
2017-09-13T18:26:46.398Z,1.97
2017-09-13T18:29:14.227Z,2.63
2017-09-13T18:31:41.738Z,2.90
2017-09-13T18:34:09.199Z,2.80
2017-09-13T18:36:36.631Z,3.40
2017-09-13T18:39:04.070Z,2.50
2017-09-13T18:41:31.587Z,2.37
2017-09-13T18:43:59.043Z,2.73
2017-09-13T18:46:26.511Z,3.37
2017-09-13T18:48:53.942Z,2.10
2017-09-13T18:51:21.430Z,1.90
2017-09-13T18:53:48.873Z,2.10
2017-09-13T18:56:16.439Z,2.47
2017-09-13T18:58:43.966Z,2.17
2017-09-13T19:01:11.421Z,2.20
2017-09-13T19:03:38.889Z,2.20
2017-09-13T19:06:06.343Z,2.57
2017-09-13T19:08:33.783Z,3.30
2017-09-13T19:11:01.255Z,2.53
2017-09-13T19:13:28.694Z,2.20
2017-09-13T19:15:56.422Z,2.10
2017-09-13T19:18:23.924Z,2.93
2017-09-13T19:20:51.374Z,2.80
2017-09-13T19:23:18.844Z,2.37
2017-09-13T19:25:46.315Z,2.57
2017-09-13T19:28:13.818Z,1.80
2017-09-13T19:30:41.305Z,3.10
2017-09-13T19:33:08.762Z,1.90
2017-09-13T19:35:36.241Z,2.93
2017-09-13T19:38:03.731Z,2.90
2017-09-13T19:40:31.248Z,2.90
2017-09-13T19:42:58.738Z,2.60
2017-09-13T19:45:26.180Z,2.30
2017-09-13T19:47:53.732Z,2.50
2017-09-13T19:50:21.187Z,2.67
2017-09-13T19:52:48.688Z,2.30
2017-09-13T19:55:16.187Z,2.70
2017-09-13T19:57:43.752Z,2.40
2017-09-13T20:00:11.198Z,1.80
2017-09-13T20:02:38.662Z,1.97
2017-09-13T20:05:06.128Z,2.13
2017-09-13T20:07:33.589Z,4.10
2017-09-13T20:10:01.045Z,2.77
2017-09-13T20:12:28.579Z,2.90
2017-09-13T20:14:56.049Z,2.57
2017-09-13T20:17:23.503Z,2.50
2017-09-13T20:19:50.966Z,2.23
2017-09-13T20:22:18.535Z,2.33
2017-09-13T20:24:46.075Z,1.97
2017-09-13T20:27:13.821Z,2.23
2017-09-13T20:29:41.252Z,1.90
2017-09-13T20:32:08.767Z,2.57
2017-09-13T20:34:36.311Z,2.57
2017-09-13T20:37:03.773Z,2.30
2017-09-13T20:39:31.224Z,3.57
2017-09-13T20:41:58.689Z,2.13
2017-09-13T20:44:26.132Z,3.00
2017-09-13T20:46:53.587Z,1.93
2017-09-13T20:49:21.106Z,2.27
2017-09-13T20:51:48.533Z,1.87
2017-09-13T20:54:16.011Z,2.50
2017-09-13T20:56:43.457Z,1.60
2017-09-13T20:59:10.929Z,2.03
2017-09-13T21:01:38.371Z,1.20
2017-09-13T21:04:05.839Z,1.57
2017-09-13T21:06:33.352Z,1.20
2017-09-13T21:09:00.825Z,1.57
2017-09-13T21:11:28.362Z,1.30
2017-09-13T21:13:55.924Z,1.30
2017-09-13T21:16:23.381Z,1.57
2017-09-13T21:18:50.837Z,0.80
2017-09-13T21:21:18.274Z,1.10
2017-09-13T21:23:45.745Z,1.80
2017-09-13T21:26:13.209Z,2.00
2017-09-13T21:28:40.684Z,1.90
2017-09-13T21:31:08.129Z,1.60
2017-09-13T21:33:35.609Z,1.40
2017-09-13T21:36:03.128Z,1.63
2017-09-13T21:38:30.588Z,1.70
2017-09-13T21:40:58.046Z,2.27
2017-09-13T21:43:25.511Z,1.20
2017-09-13T21:45:53.065Z,1.00
2017-09-13T21:48:20.527Z,1.00
2017-09-13T21:50:48.079Z,1.73
2017-09-13T21:53:15.554Z,1.30
2017-09-13T21:55:43.008Z,1.20
2017-09-13T21:58:10.468Z,1.27
2017-09-13T22:00:38.206Z,1.00
2017-09-13T22:03:05.672Z,1.17
2017-09-13T22:05:33.114Z,1.60
2017-09-13T22:08:00.647Z,1.00
2017-09-13T22:10:28.140Z,1.07
2017-09-13T22:12:55.726Z,1.60
2017-09-13T22:15:23.158Z,2.20
2017-09-13T22:17:50.623Z,1.20
2017-09-13T22:20:18.062Z,1.37
2017-09-13T22:22:45.515Z,1.27
2017-09-13T22:25:12.980Z,0.80
2017-09-13T22:27:40.417Z,1.00
2017-09-13T22:30:07.879Z,0.80
2017-09-13T22:32:35.317Z,0.83
2017-09-13T22:35:02.788Z,2.07
2017-09-13T22:37:30.276Z,1.47
2017-09-13T22:39:57.767Z,1.67
2017-09-13T22:42:25.225Z,1.77
2017-09-13T22:44:52.711Z,1.53
2017-09-13T22:47:21.304Z,0.90
2017-09-13T22:49:48.784Z,0.90
2017-09-13T22:52:16.322Z,1.23
2017-09-13T22:54:43.778Z,1.87
2017-09-13T22:57:11.234Z,0.60
2017-09-13T22:59:38.696Z,1.03
2017-09-13T23:02:06.153Z,1.00
2017-09-13T23:04:33.617Z,0.70
2017-09-13T23:07:01.070Z,1.00
2017-09-13T23:09:28.630Z,0.80
2017-09-13T23:11:56.198Z,1.63
2017-09-13T23:14:23.666Z,0.67
2017-09-13T23:16:51.096Z,0.60
2017-09-13T23:19:18.546Z,0.50
2017-09-13T23:21:45.983Z,0.57
2017-09-13T23:24:13.438Z,0.50
2017-09-13T23:26:40.872Z,0.67
2017-09-13T23:29:08.336Z,0.50
2017-09-13T23:31:35.836Z,0.50
2017-09-13T23:34:03.291Z,0.53
2017-09-13T23:36:30.851Z,0.50
2017-09-13T23:38:58.320Z,0.40
2017-09-13T23:41:25.749Z,0.93
2017-09-13T23:43:53.323Z,0.40
2017-09-13T23:46:20.758Z,0.50
2017-09-13T23:48:48.222Z,0.40
2017-09-13T23:51:15.728Z,0.40
2017-09-13T23:53:43.186Z,0.40
2017-09-13T23:56:10.692Z,0.60
2017-09-13T23:58:38.168Z,0.63
